sensor_id;sensor_type;location;lat;lon;timestamp;temperature;humidity
52575;DHT22;38468;48.114;-1.684;2024-01-06T00:00:35;9.00;66.90
52575;DHT22;38468;48.114;-1.684;2024-01-06T00:02:35;9.00;67.00
52575;DHT22;38468;48.114;-1.684;2024-01-06T00:04:36;9.00;67.10
52575;DHT22;38468;48.114;-1.684;2024-01-06T00:06:37;9.00;67.20
52575;DHT22;38468;48.114;-1.684;2024-01-06T00:08:37;9.00;67.10
52575;DHT22;38468;48.114;-1.684;2024-01-06T00:10:38;9.00;67.20
52575;DHT22;38468;48.114;-1.684;2024-01-06T00:12:39;9.00;67.30
52575;DHT22;38468;48.114;-1.684;2024-01-06T00:14:39;9.00;67.30
52575;DHT22;38468;48.114;-1.684;2024-01-06T00:16:44;9.00;67.30
52575;DHT22;38468;48.114;-1.684;2024-01-06T00:18:45;9.00;67.40
52575;DHT22;38468;48.114;-1.684;2024-01-06T00:20:46;9.00;67.60
52575;DHT22;38468;48.114;-1.684;2024-01-06T00:22:46;9.00;67.50
52575;DHT22;38468;48.114;-1.684;2024-01-06T00:24:47;9.00;67.50
52575;DHT22;38468;48.114;-1.684;2024-01-06T00:26:48;9.10;67.50
52575;DHT22;38468;48.114;-1.684;2024-01-06T00:28:49;9.00;67.60
52575;DHT22;38468;48.114;-1.684;2024-01-06T00:30:49;9.00;67.70
52575;DHT22;38468;48.114;-1.684;2024-01-06T00:32:50;9.00;67.70
52575;DHT22;38468;48.114;-1.684;2024-01-06T00:34:51;9.00;67.70
52575;DHT22;38468;48.114;-1.684;2024-01-06T00:36:51;9.00;67.70
52575;DHT22;38468;48.114;-1.684;2024-01-06T00:38:52;9.00;67.70
52575;DHT22;38468;48.114;-1.684;2024-01-06T00:40:53;9.00;67.70
52575;DHT22;38468;48.114;-1.684;2024-01-06T00:42:53;9.00;67.70
52575;DHT22;38468;48.114;-1.684;2024-01-06T00:44:54;9.00;67.80
52575;DHT22;38468;48.114;-1.684;2024-01-06T00:46:54;9.00;67.80
52575;DHT22;38468;48.114;-1.684;2024-01-06T00:48:55;8.90;67.80
52575;DHT22;38468;48.114;-1.684;2024-01-06T00:50:56;8.90;67.90
52575;DHT22;38468;48.114;-1.684;2024-01-06T00:52:56;8.90;67.90
52575;DHT22;38468;48.114;-1.684;2024-01-06T00:54:57;8.90;67.90
52575;DHT22;38468;48.114;-1.684;2024-01-06T00:56:58;8.90;67.80
52575;DHT22;38468;48.114;-1.684;2024-01-06T00:58:58;8.90;68.00
52575;DHT22;38468;48.114;-1.684;2024-01-06T01:00:59;8.80;68.00
52575;DHT22;38468;48.114;-1.684;2024-01-06T01:03:00;8.80;68.10
52575;DHT22;38468;48.114;-1.684;2024-01-06T01:05:01;8.80;68.10
52575;DHT22;38468;48.114;-1.684;2024-01-06T01:07:02;8.80;68.20
52575;DHT22;38468;48.114;-1.684;2024-01-06T01:09:03;8.90;68.40
52575;DHT22;38468;48.114;-1.684;2024-01-06T01:11:05;8.90;68.30
52575;DHT22;38468;48.114;-1.684;2024-01-06T01:13:06;8.90;68.30
52575;DHT22;38468;48.114;-1.684;2024-01-06T01:15:07;8.90;68.40
52575;DHT22;38468;48.114;-1.684;2024-01-06T01:17:07;8.90;68.50
52575;DHT22;38468;48.114;-1.684;2024-01-06T01:19:08;8.90;68.60
52575;DHT22;38468;48.114;-1.684;2024-01-06T01:21:09;8.90;68.60
52575;DHT22;38468;48.114;-1.684;2024-01-06T01:23:10;8.90;68.60
52575;DHT22;38468;48.114;-1.684;2024-01-06T01:25:10;8.90;68.60
52575;DHT22;38468;48.114;-1.684;2024-01-06T01:27:13;8.90;68.70
52575;DHT22;38468;48.114;-1.684;2024-01-06T01:29:13;8.90;68.70
52575;DHT22;38468;48.114;-1.684;2024-01-06T01:31:14;8.90;68.70
52575;DHT22;38468;48.114;-1.684;2024-01-06T01:33:15;8.90;68.70
52575;DHT22;38468;48.114;-1.684;2024-01-06T01:35:15;8.80;68.80
52575;DHT22;38468;48.114;-1.684;2024-01-06T01:37:16;8.90;68.80
52575;DHT22;38468;48.114;-1.684;2024-01-06T01:39:17;8.90;68.90
52575;DHT22;38468;48.114;-1.684;2024-01-06T01:41:17;8.90;69.00
52575;DHT22;38468;48.114;-1.684;2024-01-06T01:43:18;8.90;69.20
52575;DHT22;38468;48.114;-1.684;2024-01-06T01:45:19;8.90;69.30
52575;DHT22;38468;48.114;-1.684;2024-01-06T01:47:20;8.90;69.30
52575;DHT22;38468;48.114;-1.684;2024-01-06T01:49:22;8.90;69.30
52575;DHT22;38468;48.114;-1.684;2024-01-06T01:51:24;8.90;69.30
52575;DHT22;38468;48.114;-1.684;2024-01-06T01:53:26;8.90;69.40
52575;DHT22;38468;48.114;-1.684;2024-01-06T01:55:28;9.00;69.40
52575;DHT22;38468;48.114;-1.684;2024-01-06T01:57:28;9.00;69.50
52575;DHT22;38468;48.114;-1.684;2024-01-06T01:59:29;9.00;69.50
52575;DHT22;38468;48.114;-1.684;2024-01-06T02:01:30;9.00;69.40
52575;DHT22;38468;48.114;-1.684;2024-01-06T02:03:31;9.00;69.50
52575;DHT22;38468;48.114;-1.684;2024-01-06T02:05:31;8.90;69.50
52575;DHT22;38468;48.114;-1.684;2024-01-06T02:07:32;8.90;69.70
52575;DHT22;38468;48.114;-1.684;2024-01-06T02:09:32;8.90;69.70
52575;DHT22;38468;48.114;-1.684;2024-01-06T02:11:33;8.90;69.80
52575;DHT22;38468;48.114;-1.684;2024-01-06T02:13:35;9.00;69.80
52575;DHT22;38468;48.114;-1.684;2024-01-06T02:15:37;9.00;69.90
52575;DHT22;38468;48.114;-1.684;2024-01-06T02:17:37;9.00;70.00
52575;DHT22;38468;48.114;-1.684;2024-01-06T02:19:40;9.00;70.00
52575;DHT22;38468;48.114;-1.684;2024-01-06T02:21:42;9.00;70.10
52575;DHT22;38468;48.114;-1.684;2024-01-06T02:23:43;9.00;70.20
52575;DHT22;38468;48.114;-1.684;2024-01-06T02:25:44;9.00;70.20
52575;DHT22;38468;48.114;-1.684;2024-01-06T02:27:44;9.10;70.20
52575;DHT22;38468;48.114;-1.684;2024-01-06T02:29:45;9.10;70.30
52575;DHT22;38468;48.114;-1.684;2024-01-06T02:31:45;9.10;70.20
52575;DHT22;38468;48.114;-1.684;2024-01-06T02:33:46;9.10;70.30
52575;DHT22;38468;48.114;-1.684;2024-01-06T02:35:47;9.10;70.40
52575;DHT22;38468;48.114;-1.684;2024-01-06T02:37:47;9.20;70.50
52575;DHT22;38468;48.114;-1.684;2024-01-06T02:39:48;9.20;70.50
52575;DHT22;38468;48.114;-1.684;2024-01-06T02:41:48;9.20;70.50
52575;DHT22;38468;48.114;-1.684;2024-01-06T02:43:49;9.20;70.60
52575;DHT22;38468;48.114;-1.684;2024-01-06T02:45:50;9.30;70.60
52575;DHT22;38468;48.114;-1.684;2024-01-06T02:47:51;9.40;70.70
52575;DHT22;38468;48.114;-1.684;2024-01-06T02:49:51;9.40;70.70
52575;DHT22;38468;48.114;-1.684;2024-01-06T02:51:52;9.40;70.70
52575;DHT22;38468;48.114;-1.684;2024-01-06T02:53:53;9.40;70.70
52575;DHT22;38468;48.114;-1.684;2024-01-06T02:55:54;9.40;70.70
52575;DHT22;38468;48.114;-1.684;2024-01-06T02:57:54;9.40;70.70
52575;DHT22;38468;48.114;-1.684;2024-01-06T02:59:55;9.40;70.80
52575;DHT22;38468;48.114;-1.684;2024-01-06T03:01:55;9.40;70.80
52575;DHT22;38468;48.114;-1.684;2024-01-06T03:03:56;9.40;70.80
52575;DHT22;38468;48.114;-1.684;2024-01-06T03:05:57;9.40;70.70
52575;DHT22;38468;48.114;-1.684;2024-01-06T03:07:58;9.40;70.80
52575;DHT22;38468;48.114;-1.684;2024-01-06T03:09:58;9.40;70.80
52575;DHT22;38468;48.114;-1.684;2024-01-06T03:11:59;9.40;70.70
52575;DHT22;38468;48.114;-1.684;2024-01-06T03:13:59;9.40;70.90
52575;DHT22;38468;48.114;-1.684;2024-01-06T03:16:04;9.40;70.90
52575;DHT22;38468;48.114;-1.684;2024-01-06T03:18:07;9.50;70.90
52575;DHT22;38468;48.114;-1.684;2024-01-06T03:20:09;9.40;70.90
52575;DHT22;38468;48.114;-1.684;2024-01-06T03:22:10;9.40;70.90
52575;DHT22;38468;48.114;-1.684;2024-01-06T03:24:10;9.40;71.00
52575;DHT22;38468;48.114;-1.684;2024-01-06T03:26:11;9.40;71.00
52575;DHT22;38468;48.114;-1.684;2024-01-06T03:28:11;9.40;70.90
52575;DHT22;38468;48.114;-1.684;2024-01-06T03:30:12;9.40;71.00
52575;DHT22;38468;48.114;-1.684;2024-01-06T03:32:13;9.40;71.10
52575;DHT22;38468;48.114;-1.684;2024-01-06T03:34:14;9.40;71.20
52575;DHT22;38468;48.114;-1.684;2024-01-06T03:36:14;9.40;71.20
52575;DHT22;38468;48.114;-1.684;2024-01-06T03:38:17;9.40;71.10
52575;DHT22;38468;48.114;-1.684;2024-01-06T03:40:17;9.40;71.00
52575;DHT22;38468;48.114;-1.684;2024-01-06T03:42:18;9.40;71.20
52575;DHT22;38468;48.114;-1.684;2024-01-06T03:44:18;9.40;71.10
52575;DHT22;38468;48.114;-1.684;2024-01-06T03:46:19;9.30;71.20
52575;DHT22;38468;48.114;-1.684;2024-01-06T03:48:20;9.30;71.20
52575;DHT22;38468;48.114;-1.684;2024-01-06T03:50:20;9.30;71.10
52575;DHT22;38468;48.114;-1.684;2024-01-06T03:52:21;9.30;71.20
52575;DHT22;38468;48.114;-1.684;2024-01-06T03:54:22;9.40;71.30
52575;DHT22;38468;48.114;-1.684;2024-01-06T03:56:23;9.30;71.30
52575;DHT22;38468;48.114;-1.684;2024-01-06T03:58:23;9.30;71.30
52575;DHT22;38468;48.114;-1.684;2024-01-06T04:00:25;9.30;71.30
52575;DHT22;38468;48.114;-1.684;2024-01-06T04:02:26;9.40;71.40
52575;DHT22;38468;48.114;-1.684;2024-01-06T04:04:27;9.30;71.50
52575;DHT22;38468;48.114;-1.684;2024-01-06T04:06:27;9.30;71.40
52575;DHT22;38468;48.114;-1.684;2024-01-06T04:08:28;9.30;71.40
52575;DHT22;38468;48.114;-1.684;2024-01-06T04:10:29;9.30;71.40
52575;DHT22;38468;48.114;-1.684;2024-01-06T04:12:29;9.20;71.40
52575;DHT22;38468;48.114;-1.684;2024-01-06T04:14:30;9.20;71.40
52575;DHT22;38468;48.114;-1.684;2024-01-06T04:16:30;9.20;71.50
52575;DHT22;38468;48.114;-1.684;2024-01-06T04:18:31;9.20;71.50
52575;DHT22;38468;48.114;-1.684;2024-01-06T04:20:32;9.20;71.60
52575;DHT22;38468;48.114;-1.684;2024-01-06T04:22:33;9.20;71.60
52575;DHT22;38468;48.114;-1.684;2024-01-06T04:24:33;9.20;71.70
52575;DHT22;38468;48.114;-1.684;2024-01-06T04:26:37;9.10;71.60
52575;DHT22;38468;48.114;-1.684;2024-01-06T04:28:38;9.10;71.60
52575;DHT22;38468;48.114;-1.684;2024-01-06T04:30:38;9.10;71.50
52575;DHT22;38468;48.114;-1.684;2024-01-06T04:32:39;9.00;71.50
52575;DHT22;38468;48.114;-1.684;2024-01-06T04:34:39;9.00;71.60
52575;DHT22;38468;48.114;-1.684;2024-01-06T04:36:42;8.90;71.60
52575;DHT22;38468;48.114;-1.684;2024-01-06T04:38:42;9.00;71.80
52575;DHT22;38468;48.114;-1.684;2024-01-06T04:40:43;9.00;71.80
52575;DHT22;38468;48.114;-1.684;2024-01-06T04:42:43;8.90;71.90
52575;DHT22;38468;48.114;-1.684;2024-01-06T04:44:44;8.90;71.90
52575;DHT22;38468;48.114;-1.684;2024-01-06T04:46:45;8.90;71.90
52575;DHT22;38468;48.114;-1.684;2024-01-06T04:48:46;8.90;71.80
52575;DHT22;38468;48.114;-1.684;2024-01-06T04:50:47;8.90;72.00
52575;DHT22;38468;48.114;-1.684;2024-01-06T04:52:48;9.00;72.10
52575;DHT22;38468;48.114;-1.684;2024-01-06T04:54:48;9.00;72.20
52575;DHT22;38468;48.114;-1.684;2024-01-06T04:56:49;9.00;72.20
52575;DHT22;38468;48.114;-1.684;2024-01-06T04:58:49;9.00;72.30
52575;DHT22;38468;48.114;-1.684;2024-01-06T05:00:50;9.10;72.30
52575;DHT22;38468;48.114;-1.684;2024-01-06T05:02:52;9.10;72.30
52575;DHT22;38468;48.114;-1.684;2024-01-06T05:04:53;9.10;72.30
52575;DHT22;38468;48.114;-1.684;2024-01-06T05:06:53;9.10;72.40
52575;DHT22;38468;48.114;-1.684;2024-01-06T05:08:55;9.10;72.40
52575;DHT22;38468;48.114;-1.684;2024-01-06T05:10:55;9.10;72.40
52575;DHT22;38468;48.114;-1.684;2024-01-06T05:12:56;9.20;72.40
52575;DHT22;38468;48.114;-1.684;2024-01-06T05:14:57;9.20;72.40
52575;DHT22;38468;48.114;-1.684;2024-01-06T05:16:57;9.10;72.40
52575;DHT22;38468;48.114;-1.684;2024-01-06T05:18:58;9.20;72.40
52575;DHT22;38468;48.114;-1.684;2024-01-06T05:20:59;9.20;72.50
52575;DHT22;38468;48.114;-1.684;2024-01-06T05:22:59;9.20;72.40
52575;DHT22;38468;48.114;-1.684;2024-01-06T05:25:00;9.20;72.40
52575;DHT22;38468;48.114;-1.684;2024-01-06T05:27:00;9.20;72.40
52575;DHT22;38468;48.114;-1.684;2024-01-06T05:29:01;9.10;72.40
52575;DHT22;38468;48.114;-1.684;2024-01-06T05:31:02;9.10;72.50
52575;DHT22;38468;48.114;-1.684;2024-01-06T05:33:03;9.10;72.50
52575;DHT22;38468;48.114;-1.684;2024-01-06T05:35:04;9.10;72.50
52575;DHT22;38468;48.114;-1.684;2024-01-06T05:37:05;9.10;72.50
52575;DHT22;38468;48.114;-1.684;2024-01-06T05:39:05;9.10;72.50
52575;DHT22;38468;48.114;-1.684;2024-01-06T05:41:06;9.00;72.50
52575;DHT22;38468;48.114;-1.684;2024-01-06T05:43:06;9.10;72.60
52575;DHT22;38468;48.114;-1.684;2024-01-06T05:45:10;9.00;72.50
52575;DHT22;38468;48.114;-1.684;2024-01-06T05:47:12;9.00;72.60
52575;DHT22;38468;48.114;-1.684;2024-01-06T05:49:13;9.00;72.60
52575;DHT22;38468;48.114;-1.684;2024-01-06T05:51:13;9.00;72.70
52575;DHT22;38468;48.114;-1.684;2024-01-06T05:53:14;9.00;72.60
52575;DHT22;38468;48.114;-1.684;2024-01-06T05:55:19;9.00;72.60
52575;DHT22;38468;48.114;-1.684;2024-01-06T05:57:19;9.00;72.70
52575;DHT22;38468;48.114;-1.684;2024-01-06T05:59:20;9.00;72.70
52575;DHT22;38468;48.114;-1.684;2024-01-06T06:01:21;8.90;72.70
52575;DHT22;38468;48.114;-1.684;2024-01-06T06:03:21;9.00;72.80
52575;DHT22;38468;48.114;-1.684;2024-01-06T06:05:22;9.00;72.70
52575;DHT22;38468;48.114;-1.684;2024-01-06T06:07:23;9.00;72.80
52575;DHT22;38468;48.114;-1.684;2024-01-06T06:09:23;9.00;72.90
52575;DHT22;38468;48.114;-1.684;2024-01-06T06:11:24;9.00;72.90
52575;DHT22;38468;48.114;-1.684;2024-01-06T06:13:25;9.00;72.90
52575;DHT22;38468;48.114;-1.684;2024-01-06T06:15:25;9.00;72.90
52575;DHT22;38468;48.114;-1.684;2024-01-06T06:17:26;9.00;72.80
52575;DHT22;38468;48.114;-1.684;2024-01-06T06:19:27;9.00;72.80
52575;DHT22;38468;48.114;-1.684;2024-01-06T06:21:28;9.00;72.90
52575;DHT22;38468;48.114;-1.684;2024-01-06T06:23:29;9.00;72.90
52575;DHT22;38468;48.114;-1.684;2024-01-06T06:25:30;8.90;73.00
52575;DHT22;38468;48.114;-1.684;2024-01-06T06:27:30;8.90;72.90
52575;DHT22;38468;48.114;-1.684;2024-01-06T06:29:31;8.90;72.90
52575;DHT22;38468;48.114;-1.684;2024-01-06T06:31:31;8.90;73.00
52575;DHT22;38468;48.114;-1.684;2024-01-06T06:33:32;8.90;73.00
52575;DHT22;38468;48.114;-1.684;2024-01-06T06:35:33;8.90;73.00
52575;DHT22;38468;48.114;-1.684;2024-01-06T06:37:34;8.80;72.90
52575;DHT22;38468;48.114;-1.684;2024-01-06T06:39:36;8.80;72.80
52575;DHT22;38468;48.114;-1.684;2024-01-06T06:41:37;8.70;72.90
52575;DHT22;38468;48.114;-1.684;2024-01-06T06:43:37;8.70;72.90
52575;DHT22;38468;48.114;-1.684;2024-01-06T06:45:38;8.70;72.90
52575;DHT22;38468;48.114;-1.684;2024-01-06T06:47:38;8.60;72.90
52575;DHT22;38468;48.114;-1.684;2024-01-06T06:49:39;8.60;73.00
52575;DHT22;38468;48.114;-1.684;2024-01-06T06:51:40;8.60;73.00
52575;DHT22;38468;48.114;-1.684;2024-01-06T06:53:47;8.50;73.00
52575;DHT22;38468;48.114;-1.684;2024-01-06T06:55:47;8.50;73.10
52575;DHT22;38468;48.114;-1.684;2024-01-06T06:57:48;8.50;73.10
52575;DHT22;38468;48.114;-1.684;2024-01-06T06:59:48;8.40;73.00
52575;DHT22;38468;48.114;-1.684;2024-01-06T07:01:49;8.40;73.00
52575;DHT22;38468;48.114;-1.684;2024-01-06T07:03:50;8.40;72.90
52575;DHT22;38468;48.114;-1.684;2024-01-06T07:05:51;8.40;72.90
52575;DHT22;38468;48.114;-1.684;2024-01-06T07:07:51;8.40;73.00
52575;DHT22;38468;48.114;-1.684;2024-01-06T07:09:52;8.30;73.00
52575;DHT22;38468;48.114;-1.684;2024-01-06T07:11:53;8.30;73.10
52575;DHT22;38468;48.114;-1.684;2024-01-06T07:13:53;8.30;73.10
52575;DHT22;38468;48.114;-1.684;2024-01-06T07:15:54;8.20;73.20
52575;DHT22;38468;48.114;-1.684;2024-01-06T07:17:54;8.30;73.20
52575;DHT22;38468;48.114;-1.684;2024-01-06T07:19:55;8.30;73.20
52575;DHT22;38468;48.114;-1.684;2024-01-06T07:21:56;8.20;73.20
52575;DHT22;38468;48.114;-1.684;2024-01-06T07:23:56;8.20;73.30
52575;DHT22;38468;48.114;-1.684;2024-01-06T07:25:57;8.20;73.30
52575;DHT22;38468;48.114;-1.684;2024-01-06T07:27:58;8.30;73.40
52575;DHT22;38468;48.114;-1.684;2024-01-06T07:29:59;8.30;73.50
52575;DHT22;38468;48.114;-1.684;2024-01-06T07:31:59;8.40;73.50
52575;DHT22;38468;48.114;-1.684;2024-01-06T07:34:00;8.40;73.60
52575;DHT22;38468;48.114;-1.684;2024-01-06T07:36:00;8.40;73.60
52575;DHT22;38468;48.114;-1.684;2024-01-06T07:38:01;8.40;73.60
52575;DHT22;38468;48.114;-1.684;2024-01-06T07:40:02;8.40;73.60
52575;DHT22;38468;48.114;-1.684;2024-01-06T07:42:03;8.40;73.60
52575;DHT22;38468;48.114;-1.684;2024-01-06T07:44:04;8.40;73.60
52575;DHT22;38468;48.114;-1.684;2024-01-06T07:46:05;8.40;73.60
52575;DHT22;38468;48.114;-1.684;2024-01-06T07:48:07;8.40;73.70
52575;DHT22;38468;48.114;-1.684;2024-01-06T07:50:08;8.40;73.70
52575;DHT22;38468;48.114;-1.684;2024-01-06T07:52:09;8.40;73.70
52575;DHT22;38468;48.114;-1.684;2024-01-06T07:54:09;8.50;73.80
52575;DHT22;38468;48.114;-1.684;2024-01-06T07:56:11;8.50;73.80
52575;DHT22;38468;48.114;-1.684;2024-01-06T07:58:12;8.50;73.80
52575;DHT22;38468;48.114;-1.684;2024-01-06T08:00:13;8.60;73.90
52575;DHT22;38468;48.114;-1.684;2024-01-06T08:02:16;8.50;73.80
52575;DHT22;38468;48.114;-1.684;2024-01-06T08:04:17;8.50;73.70
52575;DHT22;38468;48.114;-1.684;2024-01-06T08:06:18;8.50;73.70
52575;DHT22;38468;48.114;-1.684;2024-01-06T08:08:18;8.50;73.80
52575;DHT22;38468;48.114;-1.684;2024-01-06T08:10:20;8.50;73.90
52575;DHT22;38468;48.114;-1.684;2024-01-06T08:12:21;8.60;73.90
52575;DHT22;38468;48.114;-1.684;2024-01-06T08:14:21;8.60;74.00
52575;DHT22;38468;48.114;-1.684;2024-01-06T08:16:22;8.60;74.00
52575;DHT22;38468;48.114;-1.684;2024-01-06T08:18:23;8.60;73.90
52575;DHT22;38468;48.114;-1.684;2024-01-06T08:20:24;8.60;74.00
52575;DHT22;38468;48.114;-1.684;2024-01-06T08:22:24;8.70;74.10
52575;DHT22;38468;48.114;-1.684;2024-01-06T08:24:25;8.70;74.20
52575;DHT22;38468;48.114;-1.684;2024-01-06T08:26:27;8.70;74.20
52575;DHT22;38468;48.114;-1.684;2024-01-06T08:28:28;8.80;74.20
52575;DHT22;38468;48.114;-1.684;2024-01-06T08:30:28;8.70;74.20
52575;DHT22;38468;48.114;-1.684;2024-01-06T08:32:29;8.80;74.20
52575;DHT22;38468;48.114;-1.684;2024-01-06T08:34:30;8.80;74.20
52575;DHT22;38468;48.114;-1.684;2024-01-06T08:36:30;8.90;74.30
52575;DHT22;38468;48.114;-1.684;2024-01-06T08:38:31;8.90;74.30
52575;DHT22;38468;48.114;-1.684;2024-01-06T08:40:32;8.90;74.30
52575;DHT22;38468;48.114;-1.684;2024-01-06T08:42:32;8.90;74.30
52575;DHT22;38468;48.114;-1.684;2024-01-06T08:44:33;8.90;74.30
52575;DHT22;38468;48.114;-1.684;2024-01-06T08:46:33;9.00;74.30
52575;DHT22;38468;48.114;-1.684;2024-01-06T08:48:34;9.00;74.30
52575;DHT22;38468;48.114;-1.684;2024-01-06T08:50:34;9.00;74.40
52575;DHT22;38468;48.114;-1.684;2024-01-06T08:52:35;9.00;74.40
52575;DHT22;38468;48.114;-1.684;2024-01-06T08:54:36;9.10;74.50
52575;DHT22;38468;48.114;-1.684;2024-01-06T08:56:36;9.10;74.70
52575;DHT22;38468;48.114;-1.684;2024-01-06T08:58:38;9.20;74.80
52575;DHT22;38468;48.114;-1.684;2024-01-06T09:00:38;9.30;74.80
52575;DHT22;38468;48.114;-1.684;2024-01-06T09:02:39;9.30;74.80
52575;DHT22;38468;48.114;-1.684;2024-01-06T09:04:39;9.40;74.90
52575;DHT22;38468;48.114;-1.684;2024-01-06T09:06:40;9.50;74.90
52575;DHT22;38468;48.114;-1.684;2024-01-06T09:08:42;9.50;74.90
52575;DHT22;38468;48.114;-1.684;2024-01-06T09:10:42;9.60;75.00
52575;DHT22;38468;48.114;-1.684;2024-01-06T09:12:43;9.80;75.20
52575;DHT22;38468;48.114;-1.684;2024-01-06T09:14:44;9.90;75.40
52575;DHT22;38468;48.114;-1.684;2024-01-06T09:16:45;10.00;75.60
52575;DHT22;38468;48.114;-1.684;2024-01-06T09:18:45;10.20;75.90
52575;DHT22;38468;48.114;-1.684;2024-01-06T09:20:46;10.40;75.90
52575;DHT22;38468;48.114;-1.684;2024-01-06T09:22:50;10.50;76.00
52575;DHT22;38468;48.114;-1.684;2024-01-06T09:24:50;10.70;76.00
52575;DHT22;38468;48.114;-1.684;2024-01-06T09:26:51;10.80;76.00
52575;DHT22;38468;48.114;-1.684;2024-01-06T09:28:52;10.90;75.80
52575;DHT22;38468;48.114;-1.684;2024-01-06T09:30:52;10.90;75.60
52575;DHT22;38468;48.114;-1.684;2024-01-06T09:32:56;11.00;75.50
52575;DHT22;38468;48.114;-1.684;2024-01-06T09:34:56;10.90;75.20
52575;DHT22;38468;48.114;-1.684;2024-01-06T09:36:57;10.90;74.90
52575;DHT22;38468;48.114;-1.684;2024-01-06T09:38:57;10.90;74.70
52575;DHT22;38468;48.114;-1.684;2024-01-06T09:40:58;10.80;74.60
52575;DHT22;38468;48.114;-1.684;2024-01-06T09:42:59;10.90;74.60
52575;DHT22;38468;48.114;-1.684;2024-01-06T09:44:59;10.90;74.60
52575;DHT22;38468;48.114;-1.684;2024-01-06T09:47:01;10.90;74.40
52575;DHT22;38468;48.114;-1.684;2024-01-06T09:49:04;10.80;74.40
52575;DHT22;38468;48.114;-1.684;2024-01-06T09:51:11;10.80;74.40
52575;DHT22;38468;48.114;-1.684;2024-01-06T09:53:13;10.80;74.20
52575;DHT22;38468;48.114;-1.684;2024-01-06T09:55:14;10.70;74.00
52575;DHT22;38468;48.114;-1.684;2024-01-06T09:57:15;10.70;73.90
52575;DHT22;38468;48.114;-1.684;2024-01-06T09:59:18;10.60;73.70
52575;DHT22;38468;48.114;-1.684;2024-01-06T10:01:20;10.50;73.70
52575;DHT22;38468;48.114;-1.684;2024-01-06T10:03:20;10.50;73.70
52575;DHT22;38468;48.114;-1.684;2024-01-06T10:05:21;10.50;73.80
52575;DHT22;38468;48.114;-1.684;2024-01-06T10:07:22;10.40;73.70
52575;DHT22;38468;48.114;-1.684;2024-01-06T10:09:27;10.40;73.70
52575;DHT22;38468;48.114;-1.684;2024-01-06T10:11:28;10.40;73.60
52575;DHT22;38468;48.114;-1.684;2024-01-06T10:13:29;10.40;73.60
52575;DHT22;38468;48.114;-1.684;2024-01-06T10:15:29;10.40;73.70
52575;DHT22;38468;48.114;-1.684;2024-01-06T10:17:30;10.40;73.90
52575;DHT22;38468;48.114;-1.684;2024-01-06T10:19:31;10.80;75.80
52575;DHT22;38468;48.114;-1.684;2024-01-06T10:21:32;11.20;77.00
52575;DHT22;38468;48.114;-1.684;2024-01-06T10:23:33;11.50;76.90
52575;DHT22;38468;48.114;-1.684;2024-01-06T10:25:34;11.70;76.30
52575;DHT22;38468;48.114;-1.684;2024-01-06T10:27:37;11.90;75.90
52575;DHT22;38468;48.114;-1.684;2024-01-06T10:29:38;12.00;75.80
52575;DHT22;38468;48.114;-1.684;2024-01-06T10:31:39;12.50;76.70
52575;DHT22;38468;48.114;-1.684;2024-01-06T10:33:39;13.10;78.10
52575;DHT22;38468;48.114;-1.684;2024-01-06T10:35:40;13.80;78.30
52575;DHT22;38468;48.114;-1.684;2024-01-06T10:37:42;14.20;77.40
52575;DHT22;38468;48.114;-1.684;2024-01-06T10:39:42;14.70;76.70
52575;DHT22;38468;48.114;-1.684;2024-01-06T10:41:44;15.00;76.10
52575;DHT22;38468;48.114;-1.684;2024-01-06T10:43:46;15.20;76.00
52575;DHT22;38468;48.114;-1.684;2024-01-06T10:45:49;15.30;74.40
52575;DHT22;38468;48.114;-1.684;2024-01-06T10:47:50;15.00;72.20
52575;DHT22;38468;48.114;-1.684;2024-01-06T10:49:53;14.70;71.60
52575;DHT22;38468;48.114;-1.684;2024-01-06T10:51:54;14.40;70.80
52575;DHT22;38468;48.114;-1.684;2024-01-06T10:53:57;14.00;70.00
52575;DHT22;38468;48.114;-1.684;2024-01-06T10:55:59;13.70;70.30
52575;DHT22;38468;48.114;-1.684;2024-01-06T10:58:00;13.40;69.90
52575;DHT22;38468;48.114;-1.684;2024-01-06T11:00:02;13.10;69.80
52575;DHT22;38468;48.114;-1.684;2024-01-06T11:02:05;12.90;69.90
52575;DHT22;38468;48.114;-1.684;2024-01-06T11:04:09;12.70;70.10
52575;DHT22;38468;48.114;-1.684;2024-01-06T11:06:11;12.50;70.20
52575;DHT22;38468;48.114;-1.684;2024-01-06T11:08:12;12.50;70.10
52575;DHT22;38468;48.114;-1.684;2024-01-06T11:10:17;12.40;70.80
52575;DHT22;38468;48.114;-1.684;2024-01-06T11:12:19;12.50;71.50
52575;DHT22;38468;48.114;-1.684;2024-01-06T11:14:27;12.70;71.70
52575;DHT22;38468;48.114;-1.684;2024-01-06T11:16:36;12.90;71.80
52575;DHT22;38468;48.114;-1.684;2024-01-06T11:18:39;13.00;71.80
52575;DHT22;38468;48.114;-1.684;2024-01-06T11:23:18;13.50;72.20
52575;DHT22;38468;48.114;-1.684;2024-01-06T11:25:22;13.70;71.30
52575;DHT22;38468;48.114;-1.684;2024-01-06T11:27:27;13.70;70.40
52575;DHT22;38468;48.114;-1.684;2024-01-06T11:29:31;13.70;70.30
52575;DHT22;38468;48.114;-1.684;2024-01-06T11:31:32;13.70;69.90
52575;DHT22;38468;48.114;-1.684;2024-01-06T11:33:32;13.70;70.00
52575;DHT22;38468;48.114;-1.684;2024-01-06T11:35:33;13.80;70.20
52575;DHT22;38468;48.114;-1.684;2024-01-06T11:37:51;13.90;70.20
52575;DHT22;38468;48.114;-1.684;2024-01-06T11:39:52;14.10;70.50
52575;DHT22;38468;48.114;-1.684;2024-01-06T11:41:53;14.30;70.20
52575;DHT22;38468;48.114;-1.684;2024-01-06T11:43:54;14.50;70.70
52575;DHT22;38468;48.114;-1.684;2024-01-06T11:45:58;14.90;70.50
52575;DHT22;38468;48.114;-1.684;2024-01-06T11:48:02;15.30;70.30
52575;DHT22;38468;48.114;-1.684;2024-01-06T11:50:04;15.70;70.10
52575;DHT22;38468;48.114;-1.684;2024-01-06T11:52:05;16.00;69.50
52575;DHT22;38468;48.114;-1.684;2024-01-06T11:54:06;16.40;69.60
52575;DHT22;38468;48.114;-1.684;2024-01-06T11:56:07;16.90;69.10
52575;DHT22;38468;48.114;-1.684;2024-01-06T11:58:08;17.20;68.50
52575;DHT22;38468;48.114;-1.684;2024-01-06T12:00:09;17.30;66.40
52575;DHT22;38468;48.114;-1.684;2024-01-06T12:02:12;17.10;65.30
52575;DHT22;38468;48.114;-1.684;2024-01-06T12:04:14;16.70;63.80
52575;DHT22;38468;48.114;-1.684;2024-01-06T12:06:20;16.40;63.10
52575;DHT22;38468;48.114;-1.684;2024-01-06T12:08:22;15.90;62.50
52575;DHT22;38468;48.114;-1.684;2024-01-06T12:10:23;15.50;62.50
52575;DHT22;38468;48.114;-1.684;2024-01-06T12:12:24;15.00;62.30
52575;DHT22;38468;48.114;-1.684;2024-01-06T12:14:24;14.70;62.70
52575;DHT22;38468;48.114;-1.684;2024-01-06T12:16:25;14.40;62.80
52575;DHT22;38468;48.114;-1.684;2024-01-06T12:18:27;14.20;62.70
52575;DHT22;38468;48.114;-1.684;2024-01-06T12:20:28;14.00;62.80
52575;DHT22;38468;48.114;-1.684;2024-01-06T12:22:29;13.80;63.10
52575;DHT22;38468;48.114;-1.684;2024-01-06T12:24:30;13.60;63.30
52575;DHT22;38468;48.114;-1.684;2024-01-06T12:26:31;13.50;63.50
52575;DHT22;38468;48.114;-1.684;2024-01-06T12:28:35;13.40;63.70
52575;DHT22;38468;48.114;-1.684;2024-01-06T12:30:38;13.40;63.70
52575;DHT22;38468;48.114;-1.684;2024-01-06T12:32:39;13.20;63.30
52575;DHT22;38468;48.114;-1.684;2024-01-06T12:34:40;13.00;63.00
52575;DHT22;38468;48.114;-1.684;2024-01-06T12:36:41;12.80;62.80
52575;DHT22;38468;48.114;-1.684;2024-01-06T12:38:45;12.60;62.80
52575;DHT22;38468;48.114;-1.684;2024-01-06T12:40:46;12.40;62.90
52575;DHT22;38468;48.114;-1.684;2024-01-06T12:42:47;12.30;63.00
52575;DHT22;38468;48.114;-1.684;2024-01-06T12:44:47;12.20;63.10